Time;durP1;ratioP1;P1;durP2;ratioP2;P2;SDS_P1;SDS_P2;PMS_P1;PMS_P2;Temp;Humidity;BMP_temperature;BMP_pressure;BME280_temperature;BME280_humidity;BME280_pressure;Samples;Min_cycle;Max_cycle;Signal;HPM_P1;HPM_P2
2022/05/08 00:00:24;;;;;;;;;;;15.70;89.60;;;;;;5053890;28;19949;-91
2022/05/08 00:02:52;;;;;;;;;;;15.70;89.60;;;;;;5053738;28;20024;-91
2022/05/08 00:05:18;;;;;;;;;;;15.70;89.70;;;;;;5053824;28;19946;-91
2022/05/08 00:07:44;;;;;;;;;;;15.70;89.70;;;;;;5036041;28;20097;-91
2022/05/08 00:10:09;;;;;;;;;;;15.70;89.80;;;;;;5053663;28;20493;-91
2022/05/08 00:12:36;;;;;;;;;;;15.70;89.80;;;;;;5053611;28;20361;-91
2022/05/08 00:15:02;;;;;;;;;;;15.70;89.80;;;;;;5053588;28;19946;-92
2022/05/08 00:17:33;;;;;;;;;;;15.70;89.60;;;;;;5052828;28;19960;-92
2022/05/08 00:20:01;;;;;;;;;;;15.60;89.90;;;;;;5053527;28;19953;-91
2022/05/08 00:22:26;;;;;;;;;;;15.60;90.10;;;;;;5035435;28;19984;-91
2022/05/08 00:24:52;;;;;;;;;;;15.60;90.20;;;;;;5053512;28;19954;-91
2022/05/08 00:27:17;;;;;;;;;;;15.50;90.10;;;;;;5053553;28;19960;-91
2022/05/08 00:29:43;;;;;;;;;;;15.60;90.00;;;;;;5053420;28;19973;-91
2022/05/08 00:32:08;;;;;;;;;;;15.60;89.80;;;;;;5053139;28;20325;-91
2022/05/08 00:34:34;;;;;;;;;;;15.60;89.80;;;;;;5053400;28;19989;-91
2022/05/08 00:36:59;;;;;;;;;;;15.60;89.90;;;;;;5053301;28;19940;-92
2022/05/08 00:39:25;;;;;;;;;;;15.60;90.00;;;;;;5035450;28;19957;-91
2022/05/08 00:41:50;;;;;;;;;;;15.70;90.20;;;;;;5053277;28;19944;-91
2022/05/08 00:44:16;;;;;;;;;;;15.60;90.30;;;;;;5053589;28;19978;-91
2022/05/08 00:46:42;;;;;;;;;;;15.70;90.60;;;;;;5035416;28;20012;-91
2022/05/08 00:49:07;;;;;;;;;;;15.70;90.60;;;;;;5070425;22;20446;-91
2022/05/08 00:51:34;;;;;;;;;;;15.70;90.40;;;;;;5073389;28;19952;-91
2022/05/08 00:54:01;;;;;;;;;;;15.70;90.20;;;;;;5073300;28;19950;-91
2022/05/08 00:56:26;;;;;;;;;;;15.70;90.00;;;;;;5073283;28;19985;-92
2022/05/08 00:58:53;;;;;;;;;;;15.70;89.80;;;;;;5073170;28;19995;-92
2022/05/08 01:01:19;;;;;;;;;;;15.70;89.70;;;;;;5073267;28;20009;-92
2022/05/08 01:03:45;;;;;;;;;;;15.70;89.50;;;;;;5054433;28;20378;-91
2022/05/08 01:06:12;;;;;;;;;;;15.70;89.30;;;;;;5053167;28;20033;-91
2022/05/08 01:08:38;;;;;;;;;;;15.70;89.20;;;;;;5053018;28;19999;-91
2022/05/08 01:11:05;;;;;;;;;;;15.70;88.70;;;;;;5053164;28;19939;-92
2022/05/08 01:13:30;;;;;;;;;;;15.70;88.40;;;;;;5069339;28;19959;-91
2022/05/08 01:15:56;;;;;;;;;;;15.70;88.10;;;;;;5073100;28;19933;-91
2022/05/08 01:18:22;;;;;;;;;;;15.70;87.70;;;;;;5073000;28;19958;-92
2022/05/08 01:20:47;;;;;;;;;;;15.70;87.30;;;;;;5073045;28;20039;-92
2022/05/08 01:23:15;;;;;;;;;;;15.70;87.00;;;;;;5072601;28;19980;-91
2022/05/08 01:25:53;;;;;;;;;;;15.70;86.60;;;;;;5073077;28;19942;-92
2022/05/08 01:28:19;;;;;;;;;;;15.80;86.20;;;;;;5073935;28;19995;-92
2022/05/08 01:30:46;;;;;;;;;;;15.80;85.90;;;;;;5076739;28;19972;-92
2022/05/08 01:33:12;;;;;;;;;;;15.80;85.60;;;;;;5063976;28;19955;-91
2022/05/08 01:35:37;;;;;;;;;;;15.80;85.40;;;;;;5055346;28;19964;-91
2022/05/08 01:38:03;;;;;;;;;;;15.90;85.20;;;;;;5055287;28;20026;-91
2022/05/08 01:40:30;;;;;;;;;;;15.90;84.90;;;;;;5056840;28;19973;-91
2022/05/08 01:42:56;;;;;;;;;;;15.90;84.60;;;;;;5067270;28;19927;-91
2022/05/08 01:45:21;;;;;;;;;;;15.90;84.20;;;;;;5075272;28;19935;-91
2022/05/08 01:50:31;;;;;;;;;;;16.00;83.80;;;;;;5076342;28;19982;-91
2022/05/08 01:52:57;;;;;;;;;;;16.00;83.80;;;;;;5065548;28;19953;-91
2022/05/08 01:55:22;;;;;;;;;;;16.00;83.80;;;;;;5056302;28;20066;-91
2022/05/08 01:57:48;;;;;;;;;;;16.00;83.80;;;;;;5056244;28;19936;-91
2022/05/08 02:00:13;;;;;;;;;;;16.00;83.70;;;;;;5076253;28;19999;-91
2022/05/08 02:02:40;;;;;;;;;;;16.00;83.60;;;;;;5076096;28;19928;-91
2022/05/08 02:05:06;;;;;;;;;;;16.00;83.30;;;;;;5074757;28;20309;-91
2022/05/08 02:07:32;;;;;;;;;;;15.90;83.30;;;;;;5076277;28;19924;-91
2022/05/08 02:09:58;;;;;;;;;;;16.00;83.40;;;;;;5065568;28;20358;-91
2022/05/08 02:12:23;;;;;;;;;;;16.00;83.50;;;;;;5055970;28;19921;-92
2022/05/08 02:14:49;;;;;;;;;;;15.90;83.50;;;;;;5055931;28;19919;-91
2022/05/08 02:17:14;;;;;;;;;;;15.90;83.60;;;;;;5055944;28;20022;-91
2022/05/08 02:19:40;;;;;;;;;;;16.00;83.70;;;;;;5064213;28;19942;-91
2022/05/08 02:22:05;;;;;;;;;;;16.00;83.90;;;;;;5074493;28;20054;-91
2022/05/08 02:24:31;;;;;;;;;;;15.90;84.10;;;;;;5075752;28;20070;-92
2022/05/08 02:26:56;;;;;;;;;;;15.90;84.60;;;;;;5075720;28;20405;-91
2022/05/08 02:29:22;;;;;;;;;;;15.90;85.30;;;;;;5070309;28;19975;-91
2022/05/08 02:31:47;;;;;;;;;;;15.90;85.50;;;;;;5055519;28;19935;-91
2022/05/08 02:34:13;;;;;;;;;;;15.90;85.50;;;;;;5055444;28;19923;-91
2022/05/08 02:36:39;;;;;;;;;;;15.90;85.40;;;;;;5055573;28;19953;-90
2022/05/08 02:39:04;;;;;;;;;;;15.90;85.30;;;;;;5054157;28;20335;-91
2022/05/08 02:41:30;;;;;;;;;;;15.90;85.10;;;;;;5054634;28;19952;-91
2022/05/08 02:43:56;;;;;;;;;;;15.90;84.80;;;;;;5055322;28;20061;-91
2022/05/08 02:46:21;;;;;;;;;;;15.90;84.80;;;;;;5055277;28;19928;-91
2022/05/08 02:48:47;;;;;;;;;;;15.80;84.80;;;;;;5054912;28;19969;-91
2022/05/08 02:51:12;;;;;;;;;;;15.80;84.90;;;;;;5074976;28;20027;-91
2022/05/08 02:53:38;;;;;;;;;;;15.80;84.70;;;;;;5075190;28;20041;-91
2022/05/08 02:58:47;;;;;;;;;;;15.80;84.40;;;;;;5075085;28;19932;-91
2022/05/08 03:01:13;;;;;;;;;;;15.80;84.20;;;;;;5055369;28;19944;-91
2022/05/08 03:03:38;;;;;;;;;;;15.80;84.10;;;;;;5055049;28;19932;-91
2022/05/08 03:06:05;;;;;;;;;;;15.80;84.00;;;;;;5055018;28;19936;-91
2022/05/08 03:08:31;;;;;;;;;;;15.80;84.00;;;;;;5054885;28;20024;-91
2022/05/08 03:13:41;;;;;;;;;;;15.90;83.20;;;;;;5055099;28;20022;-91
2022/05/08 03:16:08;;;;;;;;;;;15.90;82.90;;;;;;5053466;28;19974;-91
2022/05/08 03:18:39;;;;;;;;;;;15.90;82.60;;;;;;5054726;28;19922;-92
2022/05/08 03:21:08;;;;;;;;;;;16.00;82.50;;;;;;5072931;28;19940;-91
2022/05/08 03:23:36;;;;;;;;;;;16.00;82.50;;;;;;5074582;28;19921;-91
2022/05/08 03:26:04;;;;;;;;;;;16.00;82.50;;;;;;5074603;28;20380;-91
2022/05/08 03:28:31;;;;;;;;;;;16.00;82.60;;;;;;5074458;28;19966;-91
2022/05/08 03:30:57;;;;;;;;;;;16.00;82.60;;;;;;5055301;28;20000;-91
2022/05/08 03:33:22;;;;;;;;;;;16.00;82.60;;;;;;5054354;28;20464;-91
2022/05/08 03:35:48;;;;;;;;;;;16.00;82.50;;;;;;5053096;28;19923;-91
2022/05/08 03:38:14;;;;;;;;;;;16.00;82.50;;;;;;5054258;28;19994;-91
2022/05/08 03:40:39;;;;;;;;;;;16.00;82.60;;;;;;5070913;28;20042;-91
2022/05/08 03:43:05;;;;;;;;;;;16.00;82.40;;;;;;5074185;28;19952;-91
2022/05/08 03:45:31;;;;;;;;;;;16.10;82.10;;;;;;5072857;28;20003;-91
2022/05/08 03:47:59;;;;;;;;;;;16.00;82.00;;;;;;5073971;28;19958;-91
2022/05/08 03:50:24;;;;;;;;;;;16.10;81.90;;;;;;5059602;28;20034;-91
2022/05/08 03:52:50;;;;;;;;;;;16.10;82.10;;;;;;5054142;28;19951;-91
2022/05/08 03:55:16;;;;;;;;;;;16.00;82.10;;;;;;5054277;28;19986;-91
2022/05/08 03:57:42;;;;;;;;;;;16.00;82.20;;;;;;5054260;28;20430;-91
2022/05/08 04:00:08;;;;;;;;;;;16.00;82.20;;;;;;5053951;28;20062;-91
2022/05/08 04:02:33;;;;;;;;;;;16.00;82.40;;;;;;5053936;28;19970;-91
2022/05/08 04:05:02;;;;;;;;;;;16.00;82.30;;;;;;5053893;28;19929;-91
2022/05/08 04:07:28;;;;;;;;;;;16.00;82.10;;;;;;5054104;28;19952;-91
2022/05/08 04:09:54;;;;;;;;;;;16.00;82.10;;;;;;5061466;28;20061;-91
2022/05/08 04:12:20;;;;;;;;;;;16.00;82.20;;;;;;5073996;28;19945;-91
2022/05/08 04:14:45;;;;;;;;;;;16.00;82.10;;;;;;5073766;28;19948;-91
2022/05/08 04:17:11;;;;;;;;;;;16.10;81.90;;;;;;5073695;28;20455;-91
2022/05/08 04:19:37;;;;;;;;;;;16.00;81.80;;;;;;5066794;28;20005;-91
2022/05/08 04:24:49;;;;;;;;;;;16.10;81.60;;;;;;5053038;28;20536;-92
2022/05/08 04:27:14;;;;;;;;;;;16.10;81.60;;;;;;5053517;28;19936;-92
2022/05/08 04:29:40;;;;;;;;;;;16.10;81.50;;;;;;5060551;28;19955;-91
2022/05/08 04:32:06;;;;;;;;;;;16.20;81.50;;;;;;5073371;28;19931;-91
2022/05/08 04:34:31;;;;;;;;;;;16.20;81.70;;;;;;5073314;28;20057;-91
2022/05/08 04:36:57;;;;;;;;;;;16.30;82.00;;;;;;5073409;28;19965;-91
2022/05/08 04:39:22;;;;;;;;;;;16.20;81.90;;;;;;5072692;28;20336;-92
2022/05/08 04:41:48;;;;;;;;;;;16.20;81.90;;;;;;5073356;28;19939;-92
2022/05/08 04:44:13;;;;;;;;;;;16.20;81.70;;;;;;5073341;28;19947;-91
2022/05/08 04:46:39;;;;;;;;;;;16.30;81.50;;;;;;5073413;28;19923;-91
2022/05/08 04:49:04;;;;;;;;;;;16.30;81.80;;;;;;5071376;28;19955;-92
2022/05/08 04:51:30;;;;;;;;;;;16.30;81.10;;;;;;5053304;28;19948;-91
2022/05/08 04:53:56;;;;;;;;;;;16.30;80.80;;;;;;5053313;28;19976;-92
2022/05/08 04:56:21;;;;;;;;;;;16.30;81.00;;;;;;5053220;28;19923;-91
2022/05/08 04:58:47;;;;;;;;;;;16.30;80.20;;;;;;5053226;28;19937;-91
2022/05/08 05:01:13;;;;;;;;;;;16.40;79.90;;;;;;5053091;28;19950;-91
2022/05/08 05:03:38;;;;;;;;;;;16.40;79.60;;;;;;5054570;28;19947;-91
2022/05/08 05:06:04;;;;;;;;;;;16.50;79.40;;;;;;5056270;28;19940;-91
2022/05/08 05:08:30;;;;;;;;;;;16.50;79.30;;;;;;5057138;28;19948;-91
2022/05/08 05:10:55;;;;;;;;;;;16.60;79.40;;;;;;5073272;28;19974;-91
2022/05/08 05:13:21;;;;;;;;;;;16.60;79.30;;;;;;5077133;28;20478;-91
2022/05/08 05:15:46;;;;;;;;;;;16.60;79.20;;;;;;5077010;28;20403;-91
2022/05/08 05:18:12;;;;;;;;;;;16.70;79.20;;;;;;5076973;28;19951;-91
2022/05/08 05:20:37;;;;;;;;;;;16.70;79.10;;;;;;5076974;28;19922;-91
2022/05/08 05:23:03;;;;;;;;;;;16.70;79.30;;;;;;5076779;28;20433;-91
2022/05/08 05:25:29;;;;;;;;;;;16.70;79.40;;;;;;5076894;28;19947;-91
2022/05/08 05:27:55;;;;;;;;;;;16.80;79.50;;;;;;5076728;28;20049;-91
2022/05/08 05:30:21;;;;;;;;;;;16.80;79.20;;;;;;5065146;28;20030;-91
2022/05/08 05:32:47;;;;;;;;;;;16.80;79.30;;;;;;5056557;28;20396;-91
2022/05/08 05:35:13;;;;;;;;;;;16.80;79.00;;;;;;5056706;28;19931;-91
2022/05/08 05:37:39;;;;;;;;;;;16.90;79.00;;;;;;5056629;28;20311;-92
2022/05/08 05:40:05;;;;;;;;;;;16.90;78.80;;;;;;5056529;28;20018;-91
2022/05/08 05:42:31;;;;;;;;;;;17.00;78.80;;;;;;5056583;28;19933;-91
2022/05/08 05:44:56;;;;;;;;;;;17.00;78.80;;;;;;5056490;28;19939;-92
2022/05/08 05:50:07;;;;;;;;;;;17.10;78.60;;;;;;5064616;28;19959;-91
2022/05/08 05:52:35;;;;;;;;;;;17.10;78.30;;;;;;5076434;28;19945;-91
2022/05/08 05:55:04;;;;;;;;;;;17.20;78.00;;;;;;5076280;28;19938;-91
2022/05/08 05:57:41;;;;;;;;;;;17.30;77.80;;;;;;5076534;28;19932;-91
2022/05/08 06:00:11;;;;;;;;;;;17.30;77.80;;;;;;5075825;28;20028;-91
2022/05/08 06:02:39;;;;;;;;;;;17.40;77.10;;;;;;5076234;28;19918;-91
2022/05/08 06:05:06;;;;;;;;;;;17.50;76.90;;;;;;5075777;28;19946;-91
2022/05/08 06:07:35;;;;;;;;;;;17.50;76.70;;;;;;5075988;28;20394;-91
2022/05/08 06:10:01;;;;;;;;;;;17.50;76.50;;;;;;5075847;28;20326;-91
2022/05/08 06:12:27;;;;;;;;;;;17.60;76.50;;;;;;5075874;28;19921;-91
2022/05/08 06:14:52;;;;;;;;;;;17.60;75.70;;;;;;5066774;28;19989;-91
2022/05/08 06:17:18;;;;;;;;;;;17.70;75.60;;;;;;5058385;28;19948;-91
2022/05/08 06:19:43;;;;;;;;;;;17.70;74.80;;;;;;5075857;28;19928;-91
2022/05/08 06:22:09;;;;;;;;;;;17.70;73.90;;;;;;5075701;28;19920;-91
2022/05/08 06:24:35;;;;;;;;;;;17.70;73.60;;;;;;5075677;28;19947;-91
2022/05/08 06:27:00;;;;;;;;;;;17.80;73.90;;;;;;5075727;28;19923;-91
2022/05/08 06:29:26;;;;;;;;;;;17.80;73.20;;;;;;5075620;28;20450;-91
2022/05/08 06:31:52;;;;;;;;;;;17.80;73.80;;;;;;5075544;28;19908;-91
2022/05/08 06:34:18;;;;;;;;;;;17.80;72.20;;;;;;5073014;28;20537;-91
2022/05/08 06:36:44;;;;;;;;;;;17.90;72.60;;;;;;5055505;28;19937;-91
2022/05/08 06:39:09;;;;;;;;;;;18.00;72.00;;;;;;5055369;28;20293;-91
2022/05/08 06:41:36;;;;;;;;;;;18.00;71.10;;;;;;5055508;28;19950;-91
2022/05/08 06:44:02;;;;;;;;;;;18.10;71.90;;;;;;5054128;28;19919;-91
2022/05/08 06:46:31;;;;;;;;;;;18.10;71.70;;;;;;5075377;28;19908;-91
2022/05/08 06:48:57;;;;;;;;;;;18.10;71.60;;;;;;5075042;28;20504;-91
2022/05/08 06:51:22;;;;;;;;;;;18.20;70.80;;;;;;5075230;28;19924;-91
2022/05/08 06:53:48;;;;;;;;;;;18.20;71.00;;;;;;5075271;28;20040;-91
2022/05/08 06:56:15;;;;;;;;;;;18.30;70.80;;;;;;5056886;28;19959;-91
2022/05/08 07:01:35;;;;;;;;;;;18.40;69.80;;;;;;5055411;28;19919;-91
2022/05/08 07:04:03;;;;;;;;;;;18.50;69.50;;;;;;5054989;28;19930;-91
2022/05/08 07:06:29;;;;;;;;;;;18.50;69.50;;;;;;5034925;28;20351;-91
2022/05/08 07:08:55;;;;;;;;;;;18.60;69.70;;;;;;5034848;28;20352;-91
2022/05/08 07:11:21;;;;;;;;;;;18.60;69.70;;;;;;5034937;28;20010;-91
2022/05/08 07:13:46;;;;;;;;;;;18.50;69.30;;;;;;5034828;28;19916;-91
2022/05/08 07:16:12;;;;;;;;;;;18.50;69.50;;;;;;5052634;28;19913;-91
2022/05/08 07:18:37;;;;;;;;;;;18.50;69.90;;;;;;5054690;28;19934;-91
2022/05/08 07:21:04;;;;;;;;;;;18.50;70.00;;;;;;5054616;28;19924;-91
2022/05/08 07:23:30;;;;;;;;;;;18.60;69.60;;;;;;5054679;28;19904;-91
2022/05/08 07:25:56;;;;;;;;;;;18.60;69.30;;;;;;5054643;28;20312;-91
2022/05/08 07:28:21;;;;;;;;;;;18.80;69.50;;;;;;5054479;28;20412;-91
2022/05/08 07:30:48;;;;;;;;;;;18.80;69.10;;;;;;5054341;28;19960;-91
2022/05/08 07:33:16;;;;;;;;;;;18.80;68.60;;;;;;5054326;28;20032;-91
2022/05/08 07:38:27;;;;;;;;;;;19.00;68.50;;;;;;5054624;28;20397;-92
2022/05/08 07:40:52;;;;;;;;;;;19.00;68.30;;;;;;5054258;28;19962;-91
2022/05/08 07:43:18;;;;;;;;;;;19.00;68.20;;;;;;5054187;28;19909;-91
2022/05/08 07:45:43;;;;;;;;;;;19.10;67.60;;;;;;5067223;28;19909;-91
2022/05/08 07:48:09;;;;;;;;;;;19.10;67.10;;;;;;5072701;28;19952;-92
2022/05/08 07:50:35;;;;;;;;;;;19.10;67.00;;;;;;5073961;28;19998;-91
2022/05/08 07:53:00;;;;;;;;;;;19.10;67.60;;;;;;5074040;28;19956;-91
2022/05/08 07:55:26;;;;;;;;;;;19.10;68.40;;;;;;5063526;28;19917;-91
2022/05/08 07:57:51;;;;;;;;;;;19.00;68.30;;;;;;5053940;28;20008;-92
2022/05/08 08:00:17;;;;;;;;;;;19.00;68.40;;;;;;5053922;28;19909;-91
2022/05/08 08:02:42;;;;;;;;;;;19.00;68.40;;;;;;5052623;28;19917;-92
2022/05/08 08:05:08;;;;;;;;;;;19.00;68.50;;;;;;5061743;28;19919;-91
2022/05/08 08:07:33;;;;;;;;;;;19.00;67.90;;;;;;5072298;28;19916;-91
2022/05/08 08:09:59;;;;;;;;;;;19.00;67.70;;;;;;5073606;28;19918;-91
2022/05/08 08:12:25;;;;;;;;;;;19.10;67.90;;;;;;5073726;28;19957;-91
2022/05/08 08:14:50;;;;;;;;;;;19.10;67.90;;;;;;5072814;28;20317;-91
2022/05/08 08:17:16;;;;;;;;;;;19.20;67.90;;;;;;5073700;28;19912;-91
2022/05/08 08:19:41;;;;;;;;;;;19.20;67.80;;;;;;5073618;28;19923;-91
2022/05/08 08:22:07;;;;;;;;;;;19.30;67.30;;;;;;5073518;28;19915;-91
2022/05/08 08:24:33;;;;;;;;;;;19.30;67.20;;;;;;5072975;28;20452;-91
2022/05/08 08:26:58;;;;;;;;;;;19.30;67.50;;;;;;5073762;28;19915;-91
2022/05/08 08:29:24;;;;;;;;;;;19.30;68.00;;;;;;5073402;28;20372;-91
2022/05/08 08:31:49;;;;;;;;;;;19.30;68.00;;;;;;5073416;28;19908;-91
2022/05/08 08:34:15;;;;;;;;;;;19.30;67.80;;;;;;5073391;28;19916;-91
2022/05/08 08:36:40;;;;;;;;;;;19.40;67.70;;;;;;5073469;28;19922;-91
2022/05/08 08:39:06;;;;;;;;;;;19.40;67.60;;;;;;5072714;28;20391;-91
2022/05/08 08:41:34;;;;;;;;;;;19.40;68.10;;;;;;5073442;28;19909;-91
2022/05/08 08:49:39;;;;;;;;;;;19.70;68.30;;;;;;5054393;22;19979;-91
2022/05/08 08:52:05;;;;;;;;;;;19.90;68.10;;;;;;5053281;28;19936;-91
2022/05/08 08:54:30;;;;;;;;;;;20.10;67.20;;;;;;5053036;28;19909;-92
2022/05/08 08:56:56;;;;;;;;;;;20.30;65.70;;;;;;5053215;28;19920;-91
2022/05/08 08:59:21;;;;;;;;;;;20.60;64.70;;;;;;5053150;28;20015;-91
2022/05/08 09:01:47;;;;;;;;;;;20.80;63.10;;;;;;5053096;28;19946;-91
2022/05/08 09:04:15;;;;;;;;;;;21.10;62.30;;;;;;5052900;28;20316;-91
2022/05/08 09:06:41;;;;;;;;;;;21.30;61.80;;;;;;5053082;28;20350;-91
2022/05/08 09:09:34;;;;;;;;;;;21.50;60.30;;;;;;5052940;28;19909;-91
2022/05/08 09:11:59;;;;;;;;;;;21.70;59.30;;;;;;5050861;28;20370;-91
2022/05/08 09:14:35;;;;;;;;;;;21.80;58.90;;;;;;5034948;28;19958;-91
2022/05/08 09:17:01;;;;;;;;;;;22.00;59.00;;;;;;5053010;28;19937;-91
2022/05/08 09:19:32;;;;;;;;;;;22.10;56.60;;;;;;5052946;28;19928;-91
2022/05/08 09:22:00;;;;;;;;;;;22.10;55.60;;;;;;5052752;28;19908;-91
2022/05/08 09:24:25;;;;;;;;;;;22.20;55.70;;;;;;5034928;28;19909;-91
2022/05/08 09:27:07;;;;;;;;;;;22.10;55.90;;;;;;5052865;28;19944;-91
2022/05/08 09:29:33;;;;;;;;;;;22.10;55.30;;;;;;5052820;28;19965;-91
2022/05/08 09:31:58;;;;;;;;;;;22.00;55.80;;;;;;5052803;28;19996;-91
2022/05/08 09:34:24;;;;;;;;;;;22.00;56.70;;;;;;5052551;28;19954;-91
2022/05/08 09:37:03;;;;;;;;;;;22.00;56.20;;;;;;5052751;28;19917;-91
2022/05/08 09:39:29;;;;;;;;;;;22.00;56.00;;;;;;5052775;28;20370;-91
2022/05/08 09:41:55;;;;;;;;;;;22.00;56.30;;;;;;5052750;28;19915;-91
2022/05/08 09:44:20;;;;;;;;;;;22.10;57.60;;;;;;5052582;28;19919;-91
2022/05/08 09:46:48;;;;;;;;;;;22.00;55.50;;;;;;5052661;28;19919;-91
2022/05/08 09:49:17;;;;;;;;;;;22.00;56.80;;;;;;5053115;28;20373;-91
2022/05/08 09:51:43;;;;;;;;;;;22.00;56.10;;;;;;5056434;28;19961;-91
2022/05/08 09:54:09;;;;;;;;;;;22.10;56.50;;;;;;5055986;28;20023;-91
2022/05/08 09:56:35;;;;;;;;;;;22.30;56.40;;;;;;5056228;28;20020;-91
2022/05/08 09:59:01;;;;;;;;;;;22.50;56.60;;;;;;5056221;28;20373;-91
2022/05/08 10:01:26;;;;;;;;;;;22.60;55.50;;;;;;5056153;28;19912;-91
2022/05/08 10:03:52;;;;;;;;;;;22.70;56.30;;;;;;5056341;28;19909;-91
2022/05/08 10:06:18;;;;;;;;;;;22.70;55.10;;;;;;5056121;28;19909;-91
2022/05/08 10:08:45;;;;;;;;;;;22.80;54.40;;;;;;5055627;28;20099;-91
2022/05/08 10:14:05;;;;;;;;;;;22.60;54.20;;;;;;5056268;28;20270;-91
2022/05/08 10:16:49;;;;;;;;;;;22.40;53.70;;;;;;5056163;28;19952;-90
2022/05/08 10:19:18;;;;;;;;;;;22.40;54.00;;;;;;5055778;28;19959;-91
2022/05/08 10:21:56;;;;;;;;;;;22.40;54.10;;;;;;5056041;28;19958;-91
2022/05/08 10:24:31;;;;;;;;;;;22.40;54.60;;;;;;5055779;28;20003;-91
2022/05/08 10:27:16;;;;;;;;;;;22.30;53.50;;;;;;5055703;28;19974;-91
2022/05/08 10:29:50;;;;;;;;;;;22.30;53.90;;;;;;5055526;28;19912;-91
2022/05/08 10:32:28;;;;;;;;;;;22.30;54.60;;;;;;5055511;28;20354;-91
2022/05/08 10:35:13;;;;;;;;;;;22.30;54.00;;;;;;5055709;28;19915;-91
2022/05/08 10:37:50;;;;;;;;;;;22.40;54.40;;;;;;5054986;28;20431;-91
2022/05/08 10:40:21;;;;;;;;;;;22.40;53.90;;;;;;5055416;28;20388;-91
2022/05/08 10:42:47;;;;;;;;;;;22.50;54.30;;;;;;5055389;28;19952;-91
2022/05/08 10:45:36;;;;;;;;;;;22.70;54.70;;;;;;5055363;28;19948;-91
2022/05/08 10:48:14;;;;;;;;;;;22.80;54.90;;;;;;5055137;28;19916;-91
2022/05/08 10:50:41;;;;;;;;;;;22.90;53.90;;;;;;5055028;28;19924;-91
2022/05/08 10:53:19;;;;;;;;;;;22.90;54.00;;;;;;5055272;28;19912;-91
2022/05/08 10:55:44;;;;;;;;;;;22.80;53.70;;;;;;5055106;28;20431;-91
2022/05/08 10:58:10;;;;;;;;;;;22.70;53.70;;;;;;5055000;28;19959;-91
2022/05/08 11:00:35;;;;;;;;;;;22.40;52.00;;;;;;5054500;28;20046;-90
2022/05/08 11:03:03;;;;;;;;;;;22.30;53.30;;;;;;5054659;28;19954;-91
2022/05/08 11:05:29;;;;;;;;;;;22.30;55.10;;;;;;5055063;28;20396;-91
2022/05/08 11:07:57;;;;;;;;;;;22.50;54.70;;;;;;5054898;28;19947;-91
2022/05/08 11:10:24;;;;;;;;;;;22.60;52.90;;;;;;5054708;28;20492;-91
2022/05/08 11:12:56;;;;;;;;;;;22.70;52.20;;;;;;5054803;28;19909;-91
2022/05/08 11:15:23;;;;;;;;;;;22.80;52.80;;;;;;5054793;28;19959;-92
2022/05/08 11:18:01;;;;;;;;;;;22.90;53.10;;;;;;5054737;28;20007;-91
2022/05/08 11:20:27;;;;;;;;;;;23.00;52.40;;;;;;5054448;28;19913;-91
2022/05/08 11:22:53;;;;;;;;;;;23.00;51.40;;;;;;5054852;28;19967;-91
2022/05/08 11:25:19;;;;;;;;;;;23.00;51.40;;;;;;5036745;28;20382;-91
2022/05/08 11:27:50;;;;;;;;;;;23.20;52.70;;;;;;5054515;28;19992;-91
2022/05/08 11:30:15;;;;;;;;;;;23.20;51.20;;;;;;5054118;28;20254;-91
2022/05/08 11:38:16;;;;;;;;;;;23.40;51.50;;;;;;5054323;28;19955;-91
2022/05/08 11:40:41;;;;;;;;;;;23.60;51.10;;;;;;5054187;28;19909;-91
2022/05/08 11:43:07;;;;;;;;;;;23.60;50.30;;;;;;5054259;28;19936;-91
2022/05/08 11:45:32;;;;;;;;;;;23.70;50.80;;;;;;5036347;28;20003;-91
2022/05/08 11:47:59;;;;;;;;;;;23.80;50.90;;;;;;5053959;28;19909;-91
2022/05/08 11:50:24;;;;;;;;;;;24.00;50.00;;;;;;5053792;28;19920;-91
2022/05/08 11:52:58;;;;;;;;;;;24.20;49.90;;;;;;5054078;28;19916;-91
2022/05/08 11:55:24;;;;;;;;;;;24.30;48.80;;;;;;5054293;28;19999;-91
2022/05/08 11:57:50;;;;;;;;;;;24.30;47.20;;;;;;5053930;28;20373;-91
2022/05/08 12:00:15;;;;;;;;;;;24.50;47.60;;;;;;5053767;28;19913;-91
2022/05/08 12:02:41;;;;;;;;;;;24.70;47.70;;;;;;5053835;28;19943;-91
2022/05/08 12:05:07;;;;;;;;;;;24.80;49.30;;;;;;5053862;28;20278;-91
2022/05/08 12:07:37;;;;;;;;;;;25.00;48.40;;;;;;5053872;28;19915;-91
2022/05/08 12:10:03;;;;;;;;;;;25.30;48.20;;;;;;5035652;28;19947;-91
2022/05/08 12:12:33;;;;;;;;;;;25.30;46.70;;;;;;5053144;28;19916;-91
2022/05/08 12:15:04;;;;;;;;;;;25.20;46.50;;;;;;5053444;28;19996;-91
2022/05/08 12:17:50;;;;;;;;;;;25.10;47.10;;;;;;5053609;28;19917;-91
2022/05/08 12:20:17;;;;;;;;;;;25.00;47.20;;;;;;5053553;28;19913;-91
2022/05/08 12:22:44;;;;;;;;;;;24.80;48.20;;;;;;5053575;28;20406;-91
2022/05/08 12:25:10;;;;;;;;;;;24.90;46.40;;;;;;5053605;28;19917;-91
2022/05/08 12:27:36;;;;;;;;;;;25.00;45.70;;;;;;5053589;28;19943;-92
2022/05/08 12:30:03;;;;;;;;;;;25.10;46.30;;;;;;5053197;28;19925;-91
2022/05/08 12:32:28;;;;;;;;;;;25.40;47.60;;;;;;5053144;28;19944;-91
2022/05/08 12:34:54;;;;;;;;;;;25.70;45.80;;;;;;5053492;28;19909;-92
2022/05/08 12:37:20;;;;;;;;;;;25.90;45.50;;;;;;5053370;28;19919;-91
2022/05/08 12:39:46;;;;;;;;;;;25.90;43.60;;;;;;5053487;28;19913;-91
2022/05/08 12:42:12;;;;;;;;;;;25.90;44.90;;;;;;5053328;28;19909;-92
2022/05/08 12:44:38;;;;;;;;;;;26.20;44.00;;;;;;5053357;28;19908;-92
2022/05/08 12:47:08;;;;;;;;;;;26.40;44.30;;;;;;5035449;28;19915;-92
2022/05/08 12:49:34;;;;;;;;;;;26.60;43.10;;;;;;5053110;28;20055;-91
2022/05/08 12:52:00;;;;;;;;;;;26.40;44.10;;;;;;5053224;28;19909;-91
2022/05/08 12:54:25;;;;;;;;;;;26.30;42.90;;;;;;5053249;28;19924;-92
2022/05/08 12:56:51;;;;;;;;;;;26.20;44.20;;;;;;5053238;28;19944;-91
2022/05/08 13:02:02;;;;;;;;;;;26.20;44.60;;;;;;5053512;28;19916;-91
2022/05/08 13:04:27;;;;;;;;;;;26.30;45.80;;;;;;5053419;28;19913;-92
2022/05/08 13:06:53;;;;;;;;;;;26.60;44.30;;;;;;5035367;28;20465;-92
2022/05/08 13:09:19;;;;;;;;;;;27.20;42.80;;;;;;5052888;28;19991;-92
2022/05/08 13:11:45;;;;;;;;;;;27.80;42.60;;;;;;5053133;28;19955;-91
2022/05/08 13:14:11;;;;;;;;;;;27.90;41.10;;;;;;5053008;28;19948;-92
2022/05/08 13:16:36;;;;;;;;;;;28.30;41.20;;;;;;5053021;28;19913;-92
2022/05/08 13:19:02;;;;;;;;;;;28.50;39.60;;;;;;5053055;28;19913;-91
2022/05/08 13:21:29;;;;;;;;;;;28.80;39.50;;;;;;5053066;28;20377;-92
2022/05/08 13:23:55;;;;;;;;;;;28.90;39.80;;;;;;5053201;28;19936;-92
2022/05/08 13:26:20;;;;;;;;;;;29.10;39.10;;;;;;5056860;28;19943;-92
2022/05/08 13:28:46;;;;;;;;;;;29.50;37.50;;;;;;5056867;28;19909;-92
2022/05/08 13:31:12;;;;;;;;;;;29.70;36.90;;;;;;5038591;28;19962;-92
2022/05/08 13:33:38;;;;;;;;;;;29.20;38.70;;;;;;5056831;28;19913;-91
2022/05/08 13:36:03;;;;;;;;;;;29.20;37.80;;;;;;5056796;28;19908;-92
2022/05/08 13:38:29;;;;;;;;;;;29.10;38.10;;;;;;5056622;28;19924;-92
2022/05/08 13:40:56;;;;;;;;;;;28.90;38.40;;;;;;5056471;28;19990;-92
2022/05/08 13:43:21;;;;;;;;;;;28.90;39.20;;;;;;5056666;28;19909;-92
2022/05/08 13:45:47;;;;;;;;;;;29.40;38.30;;;;;;5056562;28;19913;-92
2022/05/08 13:48:13;;;;;;;;;;;29.30;37.10;;;;;;5056186;28;19917;-92
2022/05/08 13:50:39;;;;;;;;;;;29.40;37.50;;;;;;5056163;28;20374;-91
2022/05/08 13:53:08;;;;;;;;;;;29.00;38.80;;;;;;5056405;28;20358;-92
2022/05/08 13:55:37;;;;;;;;;;;28.90;38.80;;;;;;5056720;28;19913;-92
2022/05/08 13:58:02;;;;;;;;;;;28.80;38.50;;;;;;5056319;28;19962;-91
2022/05/08 14:00:28;;;;;;;;;;;28.90;36.70;;;;;;5056230;28;19909;-92
2022/05/08 14:02:54;;;;;;;;;;;28.90;36.70;;;;;;5056213;28;20293;-92
2022/05/08 14:05:19;;;;;;;;;;;28.70;36.90;;;;;;5056134;28;20358;-91
2022/05/08 14:07:45;;;;;;;;;;;28.30;37.20;;;;;;5056069;28;19916;-91
2022/05/08 14:10:11;;;;;;;;;;;27.90;37.10;;;;;;5037838;28;19917;-91
2022/05/08 14:12:37;;;;;;;;;;;28.00;37.50;;;;;;5055972;28;19913;-91
2022/05/08 14:15:03;;;;;;;;;;;28.70;36.80;;;;;;5056034;28;19909;-92
2022/05/08 14:17:30;;;;;;;;;;;29.90;36.00;;;;;;5055680;28;20011;-92
2022/05/08 14:19:56;;;;;;;;;;;31.20;33.30;;;;;;5055893;28;20362;-91
2022/05/08 14:22:22;;;;;;;;;;;31.90;32.60;;;;;;5055780;28;20008;-92
2022/05/08 14:24:49;;;;;;;;;;;32.20;29.90;;;;;;5055787;28;19939;-91
2022/05/08 14:27:15;;;;;;;;;;;32.60;29.50;;;;;;5055892;28;19924;-92
2022/05/08 14:29:40;;;;;;;;;;;32.90;29.70;;;;;;5055579;28;19913;-92
2022/05/08 14:37:35;;;;;;;;;;;35.90;24.60;;;;;;5054488;28;20285;-92
2022/05/08 14:40:02;;;;;;;;;;;36.70;23.80;;;;;;5055485;28;19916;-92
2022/05/08 14:42:27;;;;;;;;;;;37.30;23.60;;;;;;5055686;28;19913;-92
2022/05/08 14:44:53;;;;;;;;;;;37.60;23.00;;;;;;5055434;28;20254;-92
2022/05/08 14:47:19;;;;;;;;;;;36.70;24.20;;;;;;5037376;28;20294;-92
2022/05/08 14:49:44;;;;;;;;;;;36.10;24.80;;;;;;5055001;28;20263;-92
2022/05/08 14:52:12;;;;;;;;;;;35.70;25.40;;;;;;5055247;28;19919;-92
2022/05/08 14:54:37;;;;;;;;;;;35.50;25.70;;;;;;5055234;28;20183;-92